| time (UTC) | temp F | wind direction | speed MPH | gust MPH | rain 1hr in | rain 24hr in | rain mn in | humidity % | barometer mb |
| 20260906123113 | 74 | 69 | 0.0 | 1.0 | 0.00 | 0.07 | 0.00 | 86 | 1014.8 |
| 20260906121544 | 73 | 0 | 0.0 | 2.0 | 0.00 | 0.07 | 0.00 | 86 | 1014.7 |
| 20260906120057 | 73 | 0 | 0.0 | 0.0 | 0.00 | 0.07 | 0.00 | 88 | 1014.5 |
| 20260906114547 | 73 | 80 | 1.0 | 4.0 | 0.00 | 0.07 | 0.00 | 87 | 1014.4 |
| 20260906113046 | 72 | 90 | 0.0 | 2.0 | 0.00 | 0.07 | 0.00 | 87 | 1014.3 |
| 20260906111544 | 72 | 95 | 0.0 | 1.0 | 0.00 | 0.07 | 0.00 | 88 | 1014.4 |
| 20260906110044 | 72 | 0 | 0.0 | 0.0 | 0.00 | 0.07 | 0.00 | 89 | 1014.1 |
| 20260906104549 | 72 | 0 | 0.0 | 0.0 | 0.00 | 0.07 | 0.00 | 89 | 1013.9 |
| 20260906103048 | 72 | 0 | 0.0 | 1.0 | 0.00 | 0.07 | 0.00 | 90 | 1013.8 |
| 20260906101553 | 72 | 0 | 0.0 | 1.0 | 0.00 | 0.07 | 0.00 | 89 | 1014.0 |
| 20260906100053 | 72 | 0 | 0.0 | 1.0 | 0.00 | 0.07 | 0.00 | 89 | 1013.8 |
| 20260906094602 | 72 | 59 | 0.0 | 2.0 | 0.00 | 0.07 | 0.00 | 89 | 1014.0 |
| 20260906093049 | 71 | 70 | 0.0 | 1.0 | 0.00 | 0.07 | 0.00 | 90 | 1014.3 |
| 20260906091603 | 71 | 0 | 0.0 | 2.0 | 0.00 | 0.07 | 0.00 | 90 | 1014.4 |
| 20260906090048 | 71 | 0 | 0.0 | 0.0 | 0.00 | 0.07 | 0.00 | 89 | 1014.2 |
| 20260906084545 | 71 | 0 | 0.0 | 1.0 | 0.00 | 0.07 | 0.00 | 89 | 1014.0 |
| 20260906083045 | 71 | 0 | 0.0 | 1.0 | 0.00 | 0.07 | 0.00 | 90 | 1013.8 |
| 20260906081545 | 71 | 0 | 0.0 | 2.0 | 0.00 | 0.07 | 0.00 | 89 | 1014.0 |
| 20260906080054 | 71 | 0 | 0.0 | 1.0 | 0.00 | 0.07 | 0.00 | 89 | 1014.4 |
| 20260906074550 | 71 | 215 | 0.0 | 1.0 | 0.00 | 0.07 | 0.00 | 89 | 1014.4 |
| 20260906073055 | 71 | 0 | 0.0 | 0.0 | 0.00 | 0.07 | 0.00 | 90 | 1014.5 |
| 20260906071545 | 71 | 155 | 0.0 | 1.0 | 0.00 | 0.07 | 0.00 | 90 | 1014.4 |
| 20260906070044 | 71 | 0 | 0.0 | 0.0 | 0.00 | 0.07 | 0.00 | 91 | 1014.7 |
| 20260906064546 | 72 | 155 | 0.0 | 0.0 | 0.00 | 0.07 | 0.00 | 90 | 1014.5 |
| 20260906063046 | 72 | 0 | 0.0 | 1.0 | 0.00 | 0.07 | 0.00 | 90 | 1014.5 |
| 20260906061548 | 72 | 167 | 0.0 | 1.0 | 0.00 | 0.07 | 0.00 | 89 | 1014.7 |
| 20260906060052 | 72 | 0 | 0.0 | 1.0 | 0.00 | 0.07 | 0.00 | 89 | 1014.9 |
| 20260906054546 | 72 | 170 | 1.0 | 3.0 | 0.00 | 0.07 | 0.00 | 88 | 1015.0 |
| 20260906053059 | 73 | 141 | 2.0 | 5.0 | 0.00 | 0.07 | 0.00 | 87 | 1015.0 |
| 20260906051545 | 74 | 167 | 2.0 | 6.0 | 0.00 | 0.07 | 0.00 | 87 | 1015.2 |
| 20260906050056 | 74 | 147 | 1.0 | 6.0 | 0.07 | 0.07 | 0.00 | 87 | 1015.7 |
| 20260906044545 | 75 | 0 | 0.0 | 1.0 | 0.07 | 0.07 | 0.07 | 88 | 1015.0 |
| 20260906043100 | 75 | 236 | 0.0 | 2.0 | 0.07 | 0.07 | 0.07 | 88 | 1014.5 |
| 20260906041544 | 77 | 0 | 0.0 | 2.0 | 0.06 | 0.06 | 0.06 | 84 | 1014.5 |
| 20260906040050 | 80 | 0 | 0.0 | 0.0 | 0.00 | 0.00 | 0.00 | 73 | 1014.4 |
| 20260906034545 | 80 | 0 | 0.0 | 0.0 | 0.00 | 0.00 | 0.00 | 73 | 1014.6 |
| 20260906033055 | 80 | 0 | 0.0 | 0.0 | 0.00 | 0.00 | 0.00 | 75 | 1014.6 |
| 20260906031543 | 80 | 0 | 0.0 | 0.0 | 0.00 | 0.00 | 0.00 | 76 | 1014.3 |
| 20260906030050 | 80 | 0 | 0.0 | 0.0 | 0.00 | 0.00 | 0.00 | 74 | 1014.3 |
| 20260906024550 | 81 | 0 | 0.0 | 0.0 | 0.00 | 0.00 | 0.00 | 73 | 1014.1 |
| 20260906023051 | 81 | 165 | 0.0 | 0.0 | 0.00 | 0.00 | 0.00 | 73 | 1013.8 |
| 20260906021543 | 81 | 165 | 0.0 | 0.0 | 0.00 | 0.00 | 0.00 | 74 | 1013.6 |
| 20260906020104 | 82 | 0 | 0.0 | 0.0 | 0.00 | 0.00 | 0.00 | 72 | 1013.4 |
| 20260906014546 | 82 | 165 | 0.0 | 0.0 | 0.00 | 0.00 | 0.00 | 71 | 1013.2 |
| 20260906013106 | 83 | 0 | 0.0 | 1.0 | 0.00 | 0.00 | 0.00 | 69 | 1013.2 |
| 20260906011558 | 84 | 164 | 0.0 | 1.0 | 0.00 | 0.00 | 0.00 | 69 | 1013.7 |
| 20260906010045 | 84 | 164 | 1.0 | 3.0 | 0.00 | 0.00 | 0.00 | 69 | 1013.7 |
| 20260906004556 | 86 | 0 | 0.0 | 0.0 | 0.00 | 0.00 | 0.00 | 68 | 1013.6 |
| 20260906003046 | 86 | 0 | 0.0 | 1.0 | 0.00 | 0.00 | 0.00 | 66 | 1013.2 |
| 20260906001546 | 86 | 0 | 0.0 | 1.0 | 0.00 | 0.00 | 0.00 | 65 | 1013.1 |
| 20260906000058 | 87 | 0 | 0.0 | 1.0 | 0.00 | 0.00 | 0.00 | 66 | 1013.2 |
| 20260905234548 | 88 | 0 | 0.0 | 1.0 | 0.00 | 0.00 | 0.00 | 63 | 1013.1 |
| 20260905233044 | 88 | 0 | 0.0 | 1.0 | 0.00 | 0.00 | 0.00 | 62 | 1013.2 |
| 20260905231546 | 89 | 0 | 0.0 | 1.0 | 0.00 | 0.00 | 0.00 | 61 | 1013.0 |
| 20260905230054 | 89 | 0 | 0.0 | 1.0 | 0.00 | 0.00 | 0.00 | 60 | 1013.1 |
| 20260905224551 | 89 | 240 | 0.0 | 1.0 | 0.00 | 0.00 | 0.00 | 59 | 1013.0 |
| 20260905223047 | 90 | 240 | 0.0 | 1.0 | 0.00 | 0.00 | 0.00 | 59 | 1013.1 |
| 20260905221544 | 91 | 240 | 0.0 | 1.0 | 0.00 | 0.00 | 0.00 | 58 | 1013.2 |
| 20260905220054 | 91 | 0 | 0.0 | 1.0 | 0.00 | 0.00 | 0.00 | 56 | 1013.1 |
| 20260905214547 | 92 | 0 | 0.0 | 2.0 | 0.00 | 0.00 | 0.00 | 56 | 1013.2 |
| 20260905213043 | 92 | 0 | 0.0 | 1.0 | 0.00 | 0.00 | 0.00 | 57 | 1013.3 |
| 20260905211553 | 91 | 244 | 0.0 | 1.0 | 0.00 | 0.00 | 0.00 | 59 | 1013.3 |
| 20260905210048 | 91 | 313 | 0.0 | 1.0 | 0.00 | 0.00 | 0.00 | 59 | 1013.3 |
| 20260905204558 | 91 | 260 | 0.0 | 2.0 | 0.00 | 0.00 | 0.00 | 58 | 1013.6 |
| 20260905203046 | 92 | 255 | 0.0 | 2.0 | 0.00 | 0.00 | 0.00 | 58 | 1013.7 |
| 20260905201555 | 92 | 227 | 0.0 | 1.0 | 0.00 | 0.00 | 0.00 | 56 | 1014.0 |
| 20260905200044 | 91 | 224 | 0.0 | 1.0 | 0.00 | 0.00 | 0.00 | 57 | 1014.3 |
| 20260905194559 | 92 | 0 | 0.0 | 2.0 | 0.00 | 0.00 | 0.00 | 57 | 1014.5 |
| 20260905193044 | 92 | 0 | 0.0 | 1.0 | 0.00 | 0.00 | 0.00 | 59 | 1014.5 |
| 20260905191547 | 90 | 246 | 1.0 | 2.0 | 0.00 | 0.00 | 0.00 | 62 | 1014.9 |
| 20260905190052 | 92 | 0 | 0.0 | 3.0 | 0.00 | 0.00 | 0.00 | 63 | 1015.0 |
| 20260905184610 | 92 | 33 | 0.0 | 4.0 | 0.00 | 0.00 | 0.00 | 57 | 1015.2 |
| 20260905183050 | 92 | 0 | 0.0 | 1.0 | 0.00 | 0.00 | 0.00 | 58 | 1015.4 |
| 20260905181552 | 92 | 81 | 0.0 | 4.0 | 0.00 | 0.00 | 0.00 | 60 | 1015.7 |
| 20260905180053 | 92 | 347 | 0.0 | 3.0 | 0.00 | 0.00 | 0.00 | 61 | 1015.7 |
| 20260905174547 | 93 | 130 | 0.0 | 3.0 | 0.00 | 0.00 | 0.00 | 61 | 1015.8 |
| 20260905173044 | 91 | 72 | 0.0 | 2.0 | 0.00 | 0.00 | 0.00 | 62 | 1015.9 |
| 20260905171544 | 91 | 71 | 1.0 | 2.0 | 0.00 | 0.00 | 0.00 | 62 | 1016.1 |
| 20260905170050 | 90 | 68 | 0.0 | 2.0 | 0.00 | 0.00 | 0.00 | 63 | 1016.2 |
| 20260905164546 | 89 | 82 | 1.0 | 2.0 | 0.00 | 0.00 | 0.00 | 67 | 1016.5 |
| 20260905163045 | 89 | 69 | 1.0 | 3.0 | 0.00 | 0.00 | 0.00 | 66 | 1016.6 |
| 20260905161554 | 87 | 0 | 0.0 | 2.0 | 0.00 | 0.00 | 0.00 | 68 | 1016.8 |
| 20260905160053 | 86 | 316 | 0.0 | 1.0 | 0.00 | 0.00 | 0.00 | 72 | 1016.9 |
| 20260905154608 | 85 | 0 | 0.0 | 1.0 | 0.00 | 0.00 | 0.00 | 74 | 1017.1 |
| 20260905153044 | 84 | 337 | 0.0 | 1.0 | 0.00 | 0.00 | 0.00 | 76 | 1017.0 |
| 20260905151547 | 83 | 0 | 0.0 | 1.0 | 0.00 | 0.00 | 0.00 | 77 | 1017.0 |
| 20260905150046 | 82 | 0 | 0.0 | 1.0 | 0.00 | 0.00 | 0.00 | 78 | 1017.1 |
| 20260905144544 | 81 | 0 | 0.0 | 0.0 | 0.00 | 0.00 | 0.00 | 80 | 1017.2 |
| 20260905143046 | 81 | 0 | 0.0 | 0.0 | 0.00 | 0.00 | 0.00 | 78 | 1017.2 |
| 20260905141543 | 80 | 0 | 0.0 | 0.0 | 0.00 | 0.00 | 0.00 | 77 | 1017.1 |
| 20260905140047 | 79 | 0 | 0.0 | 0.0 | 0.00 | 0.00 | 0.00 | 78 | 1017.1 |
| 20260905134542 | 78 | 0 | 0.0 | 0.0 | 0.00 | 0.00 | 0.00 | 82 | 1017.1 |
| 20260905133049 | 78 | 0 | 0.0 | 0.0 | 0.00 | 0.00 | 0.00 | 83 | 1017.1 |
| 20260905131546 | 78 | 0 | 0.0 | 0.0 | 0.00 | 0.00 | 0.00 | 86 | 1017.2 |
| 20260905130048 | 77 | 0 | 0.0 | 0.0 | 0.00 | 0.00 | 0.00 | 85 | 1017.3 |
| 20260905124550 | 77 | 0 | 0.0 | 0.0 | 0.00 | 0.00 | 0.00 | 84 | 1017.3 |